Time;durP1;ratioP1;P1;durP2;ratioP2;P2;SDS_P1;SDS_P2;PMS_P1;PMS_P2;Temp;Humidity;BMP_temperature;BMP_pressure;BME280_temperature;BME280_humidity;BME280_pressure;Samples;Min_cycle;Max_cycle;Signal;HPM_P1;HPM_P2
2021/07/12 00:00:15;;;;;;;4.10;3.70;;;11.10;1.40;;;12.86;100.00;95298.83;646070;216;31635;-72
2021/07/12 00:02:57;;;;;;;4.80;3.83;;;11.10;1.40;;;12.86;100.00;95295.56;646721;212;31601;-72
2021/07/12 00:05:42;;;;;;;4.50;4.10;;;11.20;1.40;;;12.82;100.00;95294.44;647776;216;32895;-72
2021/07/12 00:08:23;;;;;;;4.03;3.72;;;11.10;1.40;;;12.83;100.00;95291.34;644655;216;32216;-73
2021/07/12 00:11:05;;;;;;;5.63;4.17;;;11.10;1.40;;;12.83;100.00;95297.71;646069;212;31959;-71
2021/07/12 00:13:48;;;;;;;4.10;3.80;;;11.00;1.40;;;12.77;100.00;95295.76;647155;216;32160;-73
2021/07/12 00:16:28;;;;;;;4.20;3.80;;;11.00;1.40;;;12.76;100.00;95288.23;646849;216;32209;-72
2021/07/12 00:19:10;;;;;;;4.03;3.63;;;11.00;1.40;;;12.79;100.00;95280.99;647421;212;31928;-72
2021/07/12 00:21:52;;;;;;;3.90;3.60;;;11.00;1.40;;;12.73;100.00;95281.23;645937;216;42658;-72
2021/07/12 00:24:33;;;;;;;4.50;3.90;;;10.90;1.40;;;12.66;100.00;95277.50;646071;212;37026;-72
2021/07/12 00:27:15;;;;;;;4.30;3.90;;;10.90;1.40;;;12.63;100.00;95271.05;645845;212;31596;-72
2021/07/12 00:29:57;;;;;;;3.80;3.50;;;10.90;1.40;;;12.74;100.00;95273.78;647388;212;31587;-72
2021/07/12 00:32:41;;;;;;;3.70;3.25;;;10.90;1.40;;;12.62;100.00;95270.66;631625;220;32905;-72
2021/07/12 00:35:51;;;;;;;4.10;3.70;;;10.80;1.40;;;12.60;100.00;95269.52;646201;212;31572;-72
2021/07/12 00:38:34;;;;;;;3.90;3.50;;;10.90;1.40;;;12.55;100.00;95257.83;644966;212;42235;-72
2021/07/12 00:41:19;;;;;;;6.57;4.07;;;10.80;1.40;;;12.45;100.00;95258.40;635058;216;32109;-73
2021/07/12 00:44:00;;;;;;;3.70;3.40;;;10.80;1.40;;;12.46;100.00;95256.48;647146;212;32031;-73
2021/07/12 00:46:42;;;;;;;7.05;3.90;;;10.70;1.40;;;12.34;100.00;95256.64;645726;216;42380;-73
2021/07/12 00:49:24;;;;;;;13.67;4.87;;;10.70;1.40;;;12.33;100.00;95256.06;646069;212;31586;-73
2021/07/12 00:54:40;;;;;;;9.80;5.80;;;10.70;1.40;;;12.28;100.00;95251.22;646012;212;31974;-72
2021/07/12 00:57:22;;;;;;;6.60;4.90;;;10.60;1.40;;;12.21;100.00;95246.59;647245;216;31587;-72
2021/07/12 01:00:04;;;;;;;5.40;4.90;;;10.50;1.40;;;12.15;100.00;95254.66;646359;216;31643;-72
2021/07/12 01:02:49;;;;;;;6.85;5.32;;;10.40;1.40;;;12.14;100.00;95248.76;645664;213;31585;-71
2021/07/12 01:05:31;;;;;;;6.10;5.07;;;10.50;1.40;;;12.19;100.00;95242.14;647111;212;31848;-71
2021/07/12 01:08:13;;;;;;;8.20;5.20;;;10.70;1.40;;;12.23;100.00;95238.97;646363;212;31609;-71
2021/07/12 01:11:19;;;;;;;5.40;4.90;;;10.80;1.40;;;12.27;100.00;95240.53;646637;212;31822;-71
2021/07/12 01:14:09;;;;;;;6.00;5.50;;;10.80;1.40;;;12.23;100.00;95235.59;646269;212;31574;-72
2021/07/12 01:16:59;;;;;;;5.70;5.20;;;10.80;1.40;;;12.24;100.00;95233.94;645879;216;42615;-71
2021/07/12 01:20:34;;;;;;;5.50;4.50;;;10.80;1.40;;;12.24;100.00;95228.59;646123;216;35587;-72
2021/07/12 01:23:32;;;;;;;5.20;4.70;;;10.90;1.40;;;12.28;100.00;95226.55;646253;212;31607;-72
2021/07/12 01:26:25;;;;;;;4.80;4.40;;;10.80;1.40;;;12.18;100.00;95224.16;618595;222;32086;-73
2021/07/12 01:29:28;;;;;;;6.67;6.00;;;10.80;1.40;;;12.21;100.00;95227.88;647469;212;31923;-72
2021/07/12 01:32:30;;;;;;;6.55;5.35;;;10.80;1.40;;;12.28;100.00;95224.52;646394;216;31956;-73
2021/07/12 01:36:02;;;;;;;7.68;5.90;;;10.80;1.40;;;12.30;100.00;95216.80;618299;222;31855;-72
2021/07/12 01:38:44;;;;;;;6.60;5.93;;;10.70;1.40;;;12.25;100.00;95217.41;646480;216;34532;-72
2021/07/12 01:41:35;;;;;;;5.80;5.40;;;10.60;1.40;;;12.21;100.00;95216.34;646314;212;31604;-72
2021/07/12 01:44:38;;;;;;;5.90;5.30;;;10.40;1.40;;;12.18;100.00;95209.83;646880;212;31553;-71
2021/07/12 01:47:30;;;;;;;5.40;4.90;;;10.40;1.40;;;12.19;100.00;95208.10;646619;216;31878;-72
2021/07/12 01:53:10;;;;;;;5.60;5.10;;;10.40;1.40;;;11.99;100.00;95203.77;647298;212;42553;-72
2021/07/12 01:55:58;;;;;;;5.47;4.97;;;10.30;1.40;;;12.01;100.00;95203.53;647180;212;31555;-71
2021/07/12 01:58:59;;;;;;;7.43;4.80;;;10.30;1.40;;;11.92;100.00;95196.91;646607;212;32196;-71
2021/07/12 02:01:41;;;;;;;4.82;4.20;;;10.30;1.40;;;-143.44;100.00;122422.95;647276;212;42203;-71
2021/07/12 02:04:22;;;;;;;4.90;4.40;;;10.30;1.40;;;;;;646111;212;42526;-71
2021/07/12 02:07:03;;;;;;;4.67;4.13;;;10.20;1.40;;;;;;619827;222;31923;-72
2021/07/12 02:09:44;;;;;;;3.90;3.60;;;10.10;1.40;;;;;;646784;212;31972;-72
2021/07/12 02:12:25;;;;;;;3.80;3.50;;;10.00;1.40;;;;;;618822;222;32082;-71
2021/07/12 02:15:07;;;;;;;5.70;4.30;;;9.90;1.40;;;;;;646200;216;31595;-71
2021/07/12 02:17:48;;;;;;;4.53;4.03;;;9.80;1.40;;;;;;647011;216;31775;-71
2021/07/12 02:20:29;;;;;;;4.10;3.43;;;9.80;1.40;;;;;;646043;216;31700;-71
2021/07/12 02:23:10;;;;;;;6.00;3.80;;;9.90;1.40;;;;;;646545;216;31741;-71
2021/07/12 02:25:51;;;;;;;3.97;3.50;;;9.90;1.40;;;;;;647624;212;31884;-72
2021/07/12 02:28:34;;;;;;;4.53;3.40;;;9.90;1.40;;;;;;644428;216;31588;-71
2021/07/12 02:31:15;;;;;;;4.53;3.60;;;9.80;1.40;;;;;;647368;216;31654;-72
2021/07/12 02:35:55;;;;;;;5.12;4.20;;;9.80;1.40;;;11.37;100.00;95162.13;646238;212;42827;-72
2021/07/12 02:38:37;;;;;;;4.65;3.90;;;9.90;1.40;;;11.38;100.00;95165.10;645769;212;31631;-72
2021/07/12 02:41:18;;;;;;;5.87;3.70;;;9.80;1.40;;;11.26;100.00;95164.76;634907;212;32461;-71
2021/07/12 02:44:00;;;;;;;4.80;3.50;;;9.70;1.40;;;11.24;100.00;95154.28;645987;212;31610;-72
2021/07/12 02:46:42;;;;;;;5.20;3.30;;;9.80;1.40;;;11.27;100.00;95157.57;647439;212;31596;-72
2021/07/12 02:49:24;;;;;;;3.80;3.40;;;9.80;1.40;;;11.23;100.00;95160.08;645084;212;31710;-72
2021/07/12 02:54:40;;;;;;;3.30;3.10;;;9.70;1.40;;;11.16;100.00;95168.97;646938;216;31997;-73
2021/07/12 02:57:22;;;;;;;4.30;3.10;;;9.60;1.40;;;11.21;100.00;95168.13;619736;222;31912;-70
2021/07/12 03:00:07;;;;;;;3.63;3.20;;;9.60;1.40;;;11.19;100.00;95171.48;645669;216;31601;-71
2021/07/12 03:02:48;;;;;;;5.07;3.20;;;9.70;1.40;;;11.20;100.00;95173.23;647077;216;31590;-71
2021/07/12 03:05:30;;;;;;;4.30;3.30;;;9.70;1.40;;;11.12;100.00;95175.94;646317;216;31599;-71
2021/07/12 03:08:12;;;;;;;4.13;3.13;;;9.70;1.40;;;11.03;100.00;95176.20;646233;216;31599;-71
2021/07/12 03:10:56;;;;;;;5.40;3.67;;;9.70;1.40;;;11.06;100.00;95178.48;646926;212;31602;-72
2021/07/12 03:13:42;;;;;;;12.20;3.80;;;9.70;1.40;;;11.11;100.00;95173.86;643143;214;31593;-71
2021/07/12 03:16:23;;;;;;;4.97;3.50;;;9.80;1.40;;;11.17;100.00;95160.86;646940;216;32128;-71
2021/07/12 03:19:08;;;;;;;4.10;3.80;;;9.80;1.40;;;11.16;100.00;95154.09;646816;212;31610;-71
2021/07/12 03:21:49;;;;;;;3.70;3.40;;;9.70;1.40;;;11.19;100.00;95156.19;618923;222;32079;-71
2021/07/12 03:24:31;;;;;;;3.90;3.50;;;9.70;1.40;;;11.19;100.00;95163.13;619472;226;31945;-73
2021/07/12 03:27:13;;;;;;;4.93;3.90;;;9.60;1.40;;;11.13;100.00;95164.15;646050;216;31631;-72
2021/07/12 03:29:55;;;;;;;3.80;3.50;;;9.60;1.40;;;11.10;100.00;95162.21;645015;216;31721;-73
2021/07/12 03:32:36;;;;;;;4.93;3.77;;;9.50;1.40;;;11.05;100.00;95167.99;647005;213;31700;-72
2021/07/12 03:35:54;;;;;;;3.97;3.40;;;9.50;1.40;;;11.13;100.00;95162.24;645852;216;31610;-70
2021/07/12 03:38:35;;;;;;;5.70;3.90;;;9.50;1.40;;;11.17;100.00;95163.88;645640;212;31677;-71
2021/07/12 03:41:20;;;;;;;4.40;4.00;;;9.50;1.40;;;11.16;100.00;95167.06;634943;213;31764;-71
2021/07/12 03:44:01;;;;;;;3.73;3.43;;;9.50;1.40;;;11.19;100.00;95166.91;645715;216;31587;-71
2021/07/12 03:46:46;;;;;;;6.13;3.70;;;9.50;1.40;;;11.26;100.00;95170.25;647749;212;31643;-71
2021/07/12 03:52:06;;;;;;;4.17;3.77;;;9.50;1.40;;;11.17;100.00;95161.34;647578;216;31572;-72
2021/07/12 03:54:48;;;;;;;4.37;3.97;;;9.60;1.40;;;11.17;100.00;95156.14;645659;216;31742;-72
2021/07/12 03:57:29;;;;;;;4.10;3.80;;;9.60;1.40;;;11.26;100.00;95153.48;646451;216;32162;-72
2021/07/12 04:00:12;;;;;;;5.40;3.73;;;9.60;1.40;;;11.38;100.00;95159.77;644006;216;31977;-71
2021/07/12 04:02:57;;;;;;;4.90;4.00;;;9.70;1.40;;;11.41;100.00;95163.55;646847;216;31591;-71
2021/07/12 04:05:39;;;;;;;5.10;3.80;;;9.70;1.40;;;11.39;100.00;95165.98;646996;216;31624;-74
2021/07/12 04:08:20;;;;;;;4.03;3.73;;;9.70;1.40;;;11.45;100.00;95162.76;644752;216;31588;-72
2021/07/12 04:11:02;;;;;;;4.40;4.00;;;9.80;1.40;;;11.48;100.00;95160.08;647704;216;31603;-71
2021/07/12 04:13:47;;;;;;;4.90;3.57;;;9.80;1.40;;;11.50;100.00;95159.62;619849;226;32010;-73
2021/07/12 04:16:29;;;;;;;4.07;2.90;;;9.70;1.40;;;11.47;100.00;95153.91;645069;212;31584;-73
2021/07/12 04:19:10;;;;;;;5.60;3.00;;;9.80;1.40;;;11.38;100.00;95145.44;645901;212;31593;-72
2021/07/12 04:21:52;;;;;;;5.47;3.70;;;9.70;1.40;;;11.37;100.00;95143.47;645753;216;31575;-72
2021/07/12 04:24:34;;;;;;;4.10;3.30;;;9.70;1.40;;;11.44;100.00;95142.45;646085;212;31761;-71
2021/07/12 04:27:15;;;;;;;8.60;4.03;;;9.70;1.40;;;11.62;100.00;95140.00;645927;216;31571;-71
2021/07/12 04:29:57;;;;;;;6.00;4.30;;;9.80;1.40;;;11.67;100.00;95144.38;645516;212;31614;-72
2021/07/12 04:32:39;;;;;;;5.10;3.90;;;10.00;1.40;;;11.68;100.00;95139.77;645639;216;31614;-71
2021/07/12 04:35:52;;;;;;;5.03;4.53;;;10.00;1.40;;;11.60;100.00;95141.42;646803;212;31685;-71
2021/07/12 04:38:32;;;;;;;4.60;4.10;;;10.00;1.40;;;11.59;100.00;95139.84;645555;216;31752;-72
2021/07/12 04:41:14;;;;;;;5.37;4.80;;;10.00;1.40;;;11.73;100.00;95139.66;635045;216;31886;-71
2021/07/12 04:43:56;;;;;;;4.87;4.37;;;10.10;1.40;;;11.87;100.00;95140.04;646329;212;31584;-71
2021/07/12 04:49:15;;;;;;;4.43;4.00;;;10.20;1.40;;;11.96;100.00;95132.92;646738;212;31594;-71
2021/07/12 04:51:56;;;;;;;5.40;4.20;;;10.20;1.40;;;12.04;100.00;95127.91;647114;216;31621;-71
2021/07/12 04:57:18;;;;;;;4.93;4.47;;;10.50;1.40;;;12.20;100.00;95123.25;646825;216;31723;-71
2021/07/12 05:00:07;;;;;;;4.83;4.33;;;10.60;1.40;;;12.32;100.00;95121.71;645966;216;31678;-71
2021/07/12 05:02:49;;;;;;;4.70;4.30;;;10.80;1.40;;;12.56;100.00;95120.29;645482;212;31601;-70
2021/07/12 05:05:40;;;;;;;5.80;5.20;;;10.90;1.40;;;12.67;100.00;95126.68;646236;216;31627;-73
2021/07/12 05:08:27;;;;;;;5.10;4.70;;;11.00;1.40;;;-143.44;100.00;122422.95;646792;216;31578;-72
2021/07/12 05:11:14;;;;;;;5.53;5.00;;;11.20;1.40;;;;;;646824;216;31602;-72
2021/07/12 05:13:55;;;;;;;6.00;5.40;;;11.30;1.40;;;;;;647014;216;31612;-72
2021/07/12 05:16:40;;;;;;;8.17;6.57;;;11.50;1.40;;;;;;649117;216;31597;-72
2021/07/12 05:19:21;;;;;;;21.90;20.00;;;11.60;1.40;;;;;;645507;212;31750;-73
2021/07/12 05:22:05;;;;;;;7.00;6.30;;;11.80;1.40;;;;;;619225;226;32129;-72
2021/07/12 05:24:52;;;;;;;6.33;5.73;;;12.00;1.40;;;;;;645163;216;31597;-71
2021/07/12 05:27:39;;;;;;;7.30;5.80;;;12.10;1.40;;;;;;646897;216;42165;-72
2021/07/12 05:30:26;;;;;;;6.60;6.00;;;12.20;1.40;;;;;;646593;216;31582;-73
2021/07/12 05:35:53;;;;;;;6.97;5.90;;;12.30;1.40;;;14.17;100.00;95130.97;618094;226;43169;-73
2021/07/12 05:41:17;;;;;;;7.10;6.40;;;12.50;1.40;;;14.41;100.00;95138.94;634297;215;32280;-72
2021/07/12 05:43:58;;;;;;;8.63;5.87;;;12.70;1.40;;;14.50;100.00;95132.06;618881;226;31989;-72
2021/07/12 05:46:46;;;;;;;6.93;6.25;;;12.90;1.40;;;14.65;100.00;95135.33;646747;216;31544;-73
2021/07/12 05:49:34;;;;;;;59.33;53.28;;;12.90;1.40;;;14.77;100.00;95137.98;645375;216;42355;-72
2021/07/12 05:52:15;;;;;;;15.20;13.90;;;13.10;1.40;;;14.91;100.00;95138.16;618287;222;37790;-72
2021/07/12 05:54:57;;;;;;;15.18;13.82;;;13.20;1.40;;;14.95;100.00;95131.00;646989;212;42245;-72
2021/07/12 05:57:45;;;;;;;7.10;6.40;;;13.30;1.40;;;15.06;100.00;95130.64;649307;216;40809;-72
2021/07/12 06:00:27;;;;;;;6.70;6.07;;;13.40;1.40;;;15.22;100.00;95130.41;647201;216;34700;-71
2021/07/12 06:03:51;;;;;;;4.93;4.43;;;13.50;1.40;;;15.40;100.00;95122.80;646221;212;31605;-73
2021/07/12 06:06:39;;;;;;;6.78;6.18;;;13.60;1.40;;;15.42;100.00;95116.70;617991;226;34151;-72
2021/07/12 06:09:21;;;;;;;8.80;7.50;;;13.80;1.40;;;15.49;100.00;95111.29;646500;216;31599;-72
2021/07/12 06:12:05;;;;;;;8.10;7.40;;;13.80;1.40;;;15.49;100.00;95100.96;620313;222;42718;-73
2021/07/12 06:14:47;;;;;;;9.98;9.13;;;13.90;1.40;;;15.56;100.00;95103.02;645900;216;31548;-72
2021/07/12 06:17:28;;;;;;;9.00;8.20;;;13.90;1.40;;;15.62;100.00;95096.84;646037;216;32156;-72
2021/07/12 06:20:14;;;;;;;9.65;8.85;;;14.00;1.40;;;15.74;100.00;95095.45;646438;216;31969;-73
2021/07/12 06:22:52;;;;;;;11.48;10.50;;;14.10;1.40;;;15.80;100.00;95092.94;644731;212;31554;-70
2021/07/12 06:25:34;;;;;;;9.82;9.02;;;14.20;1.40;;;15.93;100.00;95089.75;647363;216;32200;-70
2021/07/12 06:28:15;;;;;;;9.10;8.30;;;14.20;1.40;;;16.00;100.00;95089.33;645880;212;32175;-70
2021/07/12 06:30:57;;;;;;;9.23;8.32;;;14.40;1.40;;;16.15;100.00;95096.25;630360;221;31948;-73
2021/07/12 06:35:54;;;;;;;8.23;7.60;;;14.60;1.40;;;16.41;100.00;95102.77;647690;216;31759;-72
2021/07/12 06:38:42;;;;;;;8.57;7.87;;;14.80;1.40;;;16.64;100.00;95107.22;617331;226;31972;-72
2021/07/12 06:41:29;;;;;;;9.25;7.70;;;15.10;1.40;;;-143.44;100.00;122422.95;646364;216;31674;-73
2021/07/12 06:44:19;;;;;;;9.10;8.30;;;15.30;1.40;;;;;;646229;212;31588;-73
2021/07/12 06:47:02;;;;;;;8.63;7.83;;;15.40;1.40;;;;;;646007;216;31723;-72
2021/07/12 06:49:43;;;;;;;7.90;7.20;;;15.50;1.40;;;;;;646641;212;31545;-72
2021/07/12 06:52:27;;;;;;;7.80;7.10;;;15.70;1.40;;;;;;645524;212;31643;-74
2021/07/12 06:55:09;;;;;;;8.30;7.60;;;15.80;1.40;;;;;;646082;216;31638;-73
2021/07/12 06:57:56;;;;;;;9.33;8.53;;;16.10;1.40;;;;;;647090;212;31578;-73
2021/07/12 07:00:37;;;;;;;9.77;8.90;;;16.10;1.40;;;;;;644409;216;31595;-72
2021/07/12 07:03:18;;;;;;;8.20;7.50;;;16.30;1.40;;;;;;647041;212;31701;-72
2021/07/12 07:06:08;;;;;;;9.10;8.30;;;16.50;1.40;;;;;;646524;216;31550;-73
2021/07/12 07:08:49;;;;;;;8.90;8.20;;;16.50;1.40;;;;;;645753;212;31544;-73
2021/07/12 07:11:36;;;;;;;9.55;8.75;;;16.60;1.40;;;;;;646476;216;31551;-72
2021/07/12 07:14:23;;;;;;;9.53;8.80;;;16.70;1.40;;;;;;618462;222;33368;-72
2021/07/12 07:17:06;;;;;;;12.90;11.70;;;16.60;1.40;;;;;;646727;216;31631;-72
2021/07/12 07:19:53;;;;;;;10.70;9.80;;;16.60;1.40;;;;;;617082;226;32039;-72
2021/07/12 07:22:35;;;;;;;11.60;10.40;;;16.80;1.40;;;;;;646915;216;31597;-72
2021/07/12 07:25:16;;;;;;;9.13;8.33;;;17.10;1.40;;;;;;647288;216;42180;-72
2021/07/12 07:28:02;;;;;;;8.67;7.97;;;17.20;1.40;;;;;;645591;216;31693;-71
2021/07/12 07:30:43;;;;;;;6.53;6.03;;;17.40;1.40;;;;;;645930;216;31558;-72
2021/07/12 07:35:57;;;;;;;3.80;3.50;;;17.90;1.40;;;19.52;100.00;95069.67;646146;216;31953;-72
2021/07/12 07:38:44;;;;;;;2.35;2.08;;;18.20;1.40;;;19.59;100.00;95074.64;645014;216;31583;-73
2021/07/12 07:41:33;;;;;;;3.13;2.20;;;18.40;1.40;;;19.77;100.00;95068.38;646140;216;31576;-73
2021/07/12 07:44:20;;;;;;;2.20;1.55;;;18.60;1.40;;;19.85;96.06;95061.13;647456;216;32111;-71
2021/07/12 07:47:09;;;;;;;2.00;1.90;;;18.70;1.40;;;20.05;100.00;95060.60;645951;212;31522;-72
2021/07/12 07:49:55;;;;;;;2.70;1.70;;;18.80;1.40;;;19.98;92.29;95062.66;644891;216;31541;-72
2021/07/12 07:52:37;;;;;;;1.80;1.50;;;18.80;1.40;;;20.17;90.21;95062.47;644596;216;31698;-73
2021/07/12 07:55:25;;;;;;;2.30;2.10;;;19.10;1.40;;;20.15;91.83;95060.11;618575;222;31892;-73
2021/07/12 07:58:06;;;;;;;1.50;1.40;;;19.10;1.40;;;20.25;87.05;95057.45;646993;212;31546;-72
2021/07/12 08:00:57;;;;;;;1.30;1.20;;;19.10;1.40;;;20.09;86.22;95052.23;646783;216;31570;-72
2021/07/12 08:03:45;;;;;;;1.60;1.50;;;19.10;1.40;;;20.13;85.72;95048.64;646780;213;31673;-73
2021/07/12 08:06:26;;;;;;;2.58;2.03;;;19.00;1.40;;;20.48;88.95;95044.20;646257;212;31637;-72
2021/07/12 08:09:14;;;;;;;1.70;1.60;;;19.30;1.40;;;20.79;91.97;95041.61;645223;216;32276;-72
2021/07/12 08:12:02;;;;;;;3.08;1.90;;;19.60;1.40;;;21.15;95.84;95034.84;646567;216;31526;-72
2021/07/12 08:14:49;;;;;;;1.70;1.60;;;19.90;1.40;;;21.42;90.59;95030.30;647141;212;31673;-72
2021/07/12 08:17:37;;;;;;;1.85;1.75;;;20.30;1.40;;;21.33;85.80;95027.57;646725;216;31596;-71
2021/07/12 08:20:25;;;;;;;1.65;1.55;;;20.20;1.40;;;21.35;86.05;95027.28;645211;212;31559;-71
2021/07/12 08:23:06;;;;;;;1.80;1.30;;;20.20;1.40;;;21.33;83.34;95022.52;646362;216;31740;-71
2021/07/12 08:25:48;;;;;;;2.20;1.60;;;20.20;1.40;;;21.65;83.23;95026.52;646452;216;31524;-73
2021/07/12 08:28:36;;;;;;;2.20;1.80;;;20.50;1.40;;;21.52;85.50;95027.50;646697;216;31551;-72
2021/07/12 08:31:18;;;;;;;2.40;1.70;;;20.30;1.40;;;21.57;80.99;95030.39;646227;212;32001;-71
2021/07/12 08:35:51;;;;;;;2.50;1.60;;;20.70;1.40;;;21.97;80.09;95021.30;646028;213;31634;-73
2021/07/12 08:38:38;;;;;;;2.20;1.50;;;20.90;1.40;;;22.18;81.17;95019.94;644285;216;31540;-71
2021/07/12 08:41:26;;;;;;;2.10;1.60;;;21.20;1.40;;;22.56;83.37;95012.50;645576;216;31552;-71
2021/07/12 08:46:48;;;;;;;1.85;1.30;;;21.60;1.40;;;22.40;73.43;95009.08;647311;216;31572;-72
2021/07/12 08:49:30;;;;;;;5.37;4.78;;;21.30;1.40;;;22.46;75.05;95003.34;645734;216;31981;-72
2021/07/12 08:52:12;;;;;;;1.50;1.30;;;21.30;1.40;;;22.65;79.00;94997.77;646877;212;31811;-72
2021/07/12 08:55:00;;;;;;;1.70;1.50;;;21.50;1.40;;;22.84;74.82;94993.63;645365;212;31601;-72
2021/07/12 08:57:59;;;;;;;1.80;1.45;;;21.70;1.40;;;22.93;76.44;94990.98;646860;212;31570;-70
2021/07/12 09:00:50;;;;;;;1.60;1.50;;;21.70;1.40;;;23.18;79.96;94992.83;646879;216;31661;-73
2021/07/12 09:03:31;;;;;;;1.87;1.50;;;22.00;1.40;;;23.57;74.21;94987.02;645642;215;31918;-73
2021/07/12 09:06:15;;;;;;;1.93;1.70;;;22.30;1.40;;;22.91;70.22;94987.48;618788;226;33892;-72
2021/07/12 09:09:00;;;;;;;1.80;1.45;;;21.80;1.40;;;-143.44;100.00;122422.95;645644;212;31734;-72
2021/07/12 09:11:42;;;;;;;1.40;1.30;;;22.40;1.40;;;;;;646221;212;31704;-74
2021/07/12 09:14:23;;;;;;;2.10;1.30;;;22.90;1.40;;;;;;646743;216;31572;-71
2021/07/12 09:17:08;;;;;;;3.70;1.42;;;23.20;1.40;;;;;;646315;216;31593;-73
2021/07/12 09:20:22;;;;;;;1.55;1.45;;;23.30;1.40;;;;;;646279;212;31728;-72
2021/07/12 09:23:23;;;;;;;2.30;1.50;;;22.60;1.40;;;;;;645572;216;31729;-71
2021/07/12 09:26:10;;;;;;;1.60;1.37;;;23.70;1.40;;;;;;646350;212;31581;-72
2021/07/12 09:28:51;;;;;;;1.62;1.52;;;23.70;1.40;;;;;;649391;216;31837;-72
2021/07/12 09:31:38;;;;;;;1.90;1.25;;;25.10;1.40;;;;;;640648;217;31833;-72
2021/07/12 09:35:50;;;;;;;1.80;1.27;;;25.50;1.40;;;26.91;55.92;94976.80;646469;212;32082;-73
2021/07/12 09:38:32;;;;;;;2.30;1.30;;;26.30;1.40;;;27.64;55.09;94972.98;645926;212;42212;-73
2021/07/12 09:41:29;;;;;;;2.22;1.30;;;26.40;1.40;;;29.66;51.97;94966.89;633332;216;32490;-72
2021/07/12 09:44:14;;;;;;;1.37;0.90;;;27.50;1.40;;;-143.44;100.00;122422.95;645722;216;31517;-72
2021/07/12 09:46:55;;;;;;;1.40;1.10;;;26.90;1.40;;;;;;646311;216;31547;-73
2021/07/12 09:49:36;;;;;;;1.40;1.30;;;25.60;1.40;;;;;;646449;216;31676;-71
2021/07/12 09:52:17;;;;;;;1.80;1.10;;;27.60;1.40;;;;;;645846;212;31567;-71
2021/07/12 09:55:03;;;;;;;1.60;1.50;;;28.20;1.40;;;;;;646263;216;31609;-73
2021/07/12 09:58:08;;;;;;;1.80;1.70;;;28.30;1.40;;;;;;646629;216;31516;-72
2021/07/12 10:01:05;;;;;;;1.30;1.20;;;26.90;1.40;;;;;;646894;216;31744;-73
2021/07/12 10:03:45;;;;;;;1.40;1.30;;;27.70;1.40;;;;;;647889;212;31535;-72
2021/07/12 10:06:32;;;;;;;1.50;1.40;;;26.90;1.40;;;;;;646268;212;31600;-72
2021/07/12 10:09:13;;;;;;;2.20;1.83;;;28.60;1.40;;;;;;645876;212;31548;-72
2021/07/12 10:12:03;;;;;;;2.00;1.80;;;29.10;1.40;;;;;;645119;216;32053;-72
2021/07/12 10:14:44;;;;;;;1.80;1.70;;;29.80;1.40;;;;;;647133;212;32062;-71
2021/07/12 10:17:31;;;;;;;1.60;1.50;;;30.10;1.40;;;;;;646491;216;42291;-73
2021/07/12 10:20:18;;;;;;;2.20;2.00;;;29.50;1.40;;;;;;646750;216;31545;-73
2021/07/12 10:22:59;;;;;;;1.80;1.70;;;28.80;1.40;;;;;;645779;212;31733;-73
2021/07/12 10:25:44;;;;;;;2.00;1.90;;;29.40;1.40;;;;;;646981;212;31566;-72
2021/07/12 10:28:39;;;;;;;2.00;1.90;;;29.50;1.40;;;;;;644366;216;31600;-73
2021/07/12 10:31:26;;;;;;;2.08;1.90;;;27.60;1.40;;;;;;645509;216;31910;-72
2021/07/12 10:35:57;;;;;;;2.08;1.98;;;28.60;1.40;;;36.26;37.85;94925.41;647042;216;31699;-73
2021/07/12 10:38:39;;;;;;;2.70;2.50;;;29.60;1.40;;;33.11;40.64;94925.20;619907;226;32009;-72
2021/07/12 10:41:22;;;;;;;2.30;2.10;;;28.10;1.40;;;33.54;38.53;94918.69;633470;212;31706;-72
2021/07/12 10:44:05;;;;;;;2.50;2.40;;;28.20;1.40;;;34.48;37.40;94918.41;619329;226;32390;-73
2021/07/12 10:46:46;;;;;;;2.10;2.00;;;28.20;1.40;;;33.07;39.25;94917.80;647256;212;31520;-73
2021/07/12 10:49:36;;;;;;;2.53;2.33;;;27.90;1.40;;;35.30;38.67;94907.08;646580;213;31895;-73
2021/07/12 10:52:40;;;;;;;2.00;1.80;;;28.90;1.40;;;36.56;38.55;94905.88;617959;222;31870;-73
2021/07/12 10:58:15;;;;;;;2.33;2.12;;;29.80;1.40;;;36.71;36.90;94894.69;646567;212;32130;-73
2021/07/12 11:01:04;;;;;;;2.42;2.33;;;29.50;1.40;;;37.32;35.97;94888.30;617924;222;31868;-73
2021/07/12 11:03:49;;;;;;;2.50;2.30;;;29.90;1.40;;;35.11;35.19;94892.97;646616;216;31580;-73
2021/07/12 11:06:29;;;;;;;2.60;2.40;;;28.70;1.40;;;33.99;36.52;94898.08;646753;212;31730;-73
2021/07/12 11:09:16;;;;;;;1.90;1.80;;;27.40;1.40;;;32.52;39.02;94898.11;645719;216;31715;-73
2021/07/12 11:11:58;;;;;;;2.58;2.00;;;27.50;1.40;;;32.49;39.60;94904.11;645846;213;31855;-73
2021/07/12 11:14:40;;;;;;;1.95;1.75;;;27.10;1.40;;;34.27;37.34;94892.30;618692;222;32351;-72
2021/07/12 11:17:47;;;;;;;1.83;1.67;;;28.60;1.40;;;35.08;35.59;94893.69;618927;222;32147;-73
2021/07/12 11:20:47;;;;;;;1.80;1.70;;;28.30;1.40;;;33.28;37.90;94896.16;646342;216;31613;-73
2021/07/12 11:23:44;;;;;;;1.67;1.58;;;27.70;1.40;;;34.94;37.34;94887.48;645142;212;32148;-73
2021/07/12 11:26:40;;;;;;;2.55;1.60;;;29.10;1.40;;;37.98;32.27;94883.67;647048;216;31592;-73
2021/07/12 11:29:21;;;;;;;7.15;6.55;;;29.90;1.40;;;34.21;36.63;94875.70;646539;216;31756;-73
2021/07/12 11:32:11;;;;;;;1.75;1.65;;;28.50;1.40;;;35.37;38.36;94872.09;645590;212;31545;-73
2021/07/12 11:35:57;;;;;;;2.10;2.00;;;29.50;1.40;;;36.50;32.90;94878.72;646146;216;31612;-75
2021/07/12 11:38:41;;;;;;;1.92;1.73;;;29.30;1.40;;;33.32;39.10;94880.11;646587;216;31972;-73
2021/07/12 11:41:28;;;;;;;2.60;1.90;;;28.20;1.40;;;33.37;38.13;94882.05;645505;212;31760;-74
2021/07/12 11:44:13;;;;;;;2.20;2.00;;;28.10;1.40;;;36.04;36.33;94880.86;646339;212;31598;-72
2021/07/12 11:46:55;;;;;;;1.55;1.40;;;29.50;1.40;;;37.15;33.05;94878.67;644319;216;31698;-72
2021/07/12 11:49:37;;;;;;;2.50;2.30;;;29.90;1.40;;;38.41;33.59;94863.56;647232;212;31564;-73
2021/07/12 11:52:18;;;;;;;1.70;1.60;;;31.00;1.40;;;39.05;31.30;94857.39;646821;212;31676;-72
2021/07/12 11:55:14;;;;;;;2.10;1.90;;;30.80;1.40;;;36.91;31.36;94864.00;646514;216;31670;-74
2021/07/12 11:57:56;;;;;;;1.90;1.80;;;29.40;1.40;;;36.95;34.39;94858.45;646871;216;31567;-72
2021/07/12 12:00:38;;;;;;;2.30;2.10;;;29.40;1.40;;;38.81;32.10;94843.66;646612;216;31554;-73
2021/07/12 12:03:19;;;;;;;2.10;1.90;;;30.50;1.40;;;39.29;32.52;94843.16;645961;216;42193;-73
2021/07/12 12:06:03;;;;;;;1.80;1.70;;;30.90;1.40;;;38.44;30.03;94853.39;646107;216;42224;-73
2021/07/12 12:08:45;;;;;;;1.83;1.70;;;30.50;1.40;;;36.39;32.18;94859.30;646757;216;42472;-73
2021/07/12 12:11:33;;;;;;;2.10;1.87;;;29.30;1.40;;;39.27;31.70;94855.59;646262;212;31700;-73
2021/07/12 12:14:16;;;;;;;2.20;2.00;;;30.50;1.40;;;41.53;29.73;94849.77;631022;222;31707;-71
2021/07/12 12:16:57;;;;;;;2.40;1.90;;;32.20;1.40;;;38.01;32.60;94850.44;645670;212;42874;-71
2021/07/12 12:19:39;;;;;;;1.70;1.60;;;30.70;1.40;;;36.38;33.77;94846.98;619577;222;31962;-72
2021/07/12 12:22:21;;;;;;;2.10;2.00;;;29.90;1.40;;;38.37;30.49;94841.31;647207;212;42860;-71
2021/07/12 12:25:03;;;;;;;2.25;2.10;;;30.60;1.40;;;-143.44;100.00;122422.95;645493;212;31806;-71
2021/07/12 12:27:44;;;;;;;2.10;1.90;;;30.10;1.40;;;;;;618674;226;31880;-71
2021/07/12 12:30:28;;;;;;;2.40;2.20;;;29.80;1.40;;;;;;645949;216;31574;-71
2021/07/12 12:35:51;;;;;;;2.10;2.00;;;28.60;1.40;;;32.59;36.44;94820.89;646286;212;31677;-71
2021/07/12 12:38:33;;;;;;;2.00;1.80;;;27.60;1.40;;;33.70;37.89;94811.79;646070;212;31678;-71
2021/07/12 12:41:19;;;;;;;2.10;2.00;;;28.50;1.40;;;33.08;35.18;94803.97;610190;226;32134;-71
2021/07/12 12:44:05;;;;;;;2.58;2.37;;;28.00;1.40;;;33.53;37.08;94796.28;618929;225;31888;-71
2021/07/12 12:46:49;;;;;;;1.90;1.80;;;28.70;1.40;;;35.56;34.64;94794.42;646464;216;31678;-71
2021/07/12 12:49:34;;;;;;;2.45;2.25;;;29.60;1.40;;;36.41;34.42;94786.08;645335;212;31749;-71
2021/07/12 12:52:18;;;;;;;2.00;1.90;;;30.10;1.40;;;39.88;32.98;94777.41;647338;216;31587;-71
2021/07/12 12:55:01;;;;;;;2.40;2.20;;;31.50;1.40;;;38.36;33.67;94772.52;646042;212;31651;-70